createdAt,value
2023-01-25T00:02:24.423Z,85.8
2023-01-25T00:17:33.724Z,85.3
2023-01-25T00:33:01.777Z,85.3
2023-01-25T00:48:11.644Z,85.2
2023-01-25T01:03:20.829Z,85.3
2023-01-25T01:23:26.511Z,79.9
2023-01-25T01:38:38.671Z,84
2023-01-25T01:53:48.035Z,84.3
2023-01-25T02:08:58.236Z,84.3
2023-01-25T02:24:08.402Z,84.6
2023-01-25T02:39:21.101Z,84.6
2023-01-25T02:54:30.845Z,84.5
2023-01-25T03:09:40.167Z,84.5
2023-01-25T03:24:49.346Z,84.5
2023-01-25T03:39:58.967Z,84.6
2023-01-25T03:55:10.667Z,84.6
2023-01-25T04:10:20.154Z,84.7
2023-01-25T04:25:31.520Z,84.7
2023-01-25T04:40:41.647Z,84.7
2023-01-25T04:55:51.719Z,84.9
2023-01-25T05:11:01.260Z,84.8
2023-01-25T05:26:11.283Z,84.9
2023-01-25T05:41:20.255Z,84.9
2023-01-25T05:56:29.489Z,84.9
2023-01-25T06:11:39.641Z,84.9
2023-01-25T06:26:48.526Z,85
2023-01-25T06:41:58.217Z,84.8
2023-01-25T06:57:07.669Z,84.9
2023-01-25T07:12:16.582Z,84.9
2023-01-25T07:27:25.659Z,85
2023-01-25T07:42:35.320Z,85
2023-01-25T07:57:45.339Z,85
2023-01-25T08:12:53.765Z,85.1
2023-01-25T08:28:03.203Z,85.1
2023-01-25T08:43:13.003Z,85.1
2023-01-25T08:58:22.860Z,85
2023-01-25T09:13:32.194Z,85
2023-01-25T09:28:41.839Z,85.2
2023-01-25T09:43:51.393Z,85.2
2023-01-25T09:59:00.728Z,85.2
2023-01-25T10:14:10.347Z,85.2
2023-01-25T10:29:19.465Z,85.2
2023-01-25T10:44:29.386Z,85.2
2023-01-25T10:59:39.030Z,85.2
2023-01-25T11:14:48.496Z,85.3
2023-01-25T11:29:57.943Z,85.4
2023-01-25T11:45:07.986Z,85.2
2023-01-25T12:00:17.542Z,85.3
2023-01-25T12:15:27.190Z,85.3
2023-01-25T12:30:37.198Z,85.4
2023-01-25T12:45:48.558Z,85.3
2023-01-25T13:00:57.483Z,85.4
2023-01-25T13:16:08.023Z,85.3
2023-01-25T13:31:17.934Z,85.4
2023-01-25T13:46:27.266Z,85.4
2023-01-25T14:01:36.901Z,85.6
2023-01-25T14:16:46.271Z,85.5
2023-01-25T14:31:56.197Z,85.6
2023-01-25T14:47:05.755Z,85.6
2023-01-25T15:02:14.699Z,85.6
2023-01-25T15:17:24.558Z,85.7
2023-01-25T15:32:34.881Z,85.8
2023-01-25T15:47:46.307Z,85.8
2023-01-25T16:02:55.615Z,86
2023-01-25T16:18:03.875Z,86
2023-01-25T16:33:19.170Z,85.9
2023-01-25T16:48:28.636Z,86.1
2023-01-25T17:03:37.619Z,86
2023-01-25T17:18:47.465Z,86
2023-01-25T17:33:57.501Z,86.1
2023-01-25T17:49:07.403Z,85.7
2023-01-25T18:04:16.922Z,85.9
2023-01-25T18:19:26.228Z,86.7
2023-01-25T18:34:35.276Z,86.2
2023-01-25T18:49:46.560Z,86.2
2023-01-25T19:04:56.234Z,86.1
2023-01-25T19:20:06.301Z,86.3
2023-01-25T19:35:15.129Z,86.3
2023-01-25T19:50:24.171Z,86.5
2023-01-25T20:05:33.532Z,86.6
2023-01-25T20:20:42.869Z,86.6
2023-01-25T20:35:52.889Z,86.3
2023-01-25T20:51:02.665Z,86
2023-01-25T21:06:10.934Z,86.3
2023-01-25T21:21:21.143Z,86.6
2023-01-25T21:36:30.460Z,86.5
2023-01-25T21:51:39.654Z,86.4
2023-01-25T22:06:49.500Z,86.4
2023-01-25T22:21:58.752Z,86.4
2023-01-25T22:37:08.277Z,86.4
2023-01-25T22:52:17.723Z,86.2
2023-01-25T23:07:27.008Z,86.4
2023-01-25T23:22:36.490Z,85.9
2023-01-25T23:37:46.765Z,86.3
2023-01-25T23:53:47.406Z,85.3
